PWSweather.com
Personal Weather Stations
Station Observations
719732
Ponferrada, PonferradaES 24411

PonferradaPonferradaES 24411

Lat: 42.5728, Lon: -6.6425

Elevation: 1676

Station Type: PCE-FWS 20 con garita Ambient Weather SRS100LX

www.meteo.spyfly.es

High Low Average
Temperature 80.2°F26.8°C 52.5°F11.4°C 66.9°F19.4°C
Dew Point 57.4°F14.1°C 48.4°F9.1°C 53.6°F12.0°C
Winds 12.1 mph 19.5 kmh Calm Calm 3.0 mph SW4.8 kmh SW
Wind Gusts 16.8 mph27.0 kmh -- 7.0 mph11.3 kmh
Humidity 98% 34% 66%
Pressure 30.17 in1021.7 mb 30.07 in1018.3 mb -
Precipitation 0.05 in1.3 mm - -
Hour Temp Dew Point Humidity Winds Wind Gusts Pressure Precip Precip Rate Daily Precip Total
12:00 AM 61.0°F16.1°C 55.5°F13.1°C 82% 0.7 mph NW1.1 kmh NW 1.6 mph2.6 kmh 30.09 in1019.0 mb 0.00 in0.0 mm 0.00 in0.0 mm 0.05 in1.3 mm
12:05 AM 60.8°F16.0°C 55.6°F13.1°C 83% 0.7 mph NNW1.1 kmh NNW 2.2 mph3.5 kmh 30.09 in1019.0 mb 0.00 in0.0 mm 0.00 in0.0 mm 0.05 in1.3 mm
12:10 AM 60.6°F15.9°C 55.8°F13.2°C 84% Calm Calm 2.2 mph3.5 kmh 30.10 in1019.3 mb 0.00 in0.0 mm 0.00 in0.0 mm 0.05 in1.3 mm
12:15 AM 60.4°F15.8°C 55.9°F13.3°C 85% Calm Calm 2.2 mph3.5 kmh 30.10 in1019.3 mb 0.00 in0.0 mm 0.00 in0.0 mm 0.05 in1.3 mm
12:20 AM 60.6°F15.9°C 56.1°F13.4°C 85% 0.7 mph S1.1 kmh S 3.1 mph5.0 kmh 30.10 in1019.3 mb 0.00 in0.0 mm 0.00 in0.0 mm 0.05 in1.3 mm
12:25 AM 60.8°F16.0°C 55.9°F13.3°C 84% Calm Calm 3.1 mph5.0 kmh 30.10 in1019.3 mb 0.00 in0.0 mm 0.00 in0.0 mm 0.05 in1.3 mm
12:30 AM 60.8°F16.0°C 55.9°F13.3°C 84% 0.7 mph SW1.1 kmh SW 2.2 mph3.5 kmh 30.10 in1019.3 mb 0.00 in0.0 mm 0.00 in0.0 mm 0.05 in1.3 mm
12:35 AM 61.0°F16.1°C 56.1°F13.4°C 84% 0.7 mph W1.1 kmh W 3.1 mph5.0 kmh 30.10 in1019.3 mb 0.00 in0.0 mm 0.00 in0.0 mm 0.05 in1.3 mm
12:40 AM 61.0°F16.1°C 56.5°F13.6°C 85% 0.7 mph NW1.1 kmh NW 3.1 mph5.0 kmh 30.10 in1019.3 mb 0.00 in0.0 mm 0.00 in0.0 mm 0.05 in1.3 mm
12:45 AM 61.0°F16.1°C 56.5°F13.6°C 85% Calm Calm 1.6 mph2.6 kmh 30.10 in1019.3 mb 0.00 in0.0 mm 0.00 in0.0 mm 0.05 in1.3 mm
12:50 AM 60.8°F16.0°C 56.3°F13.5°C 85% Calm Calm 1.6 mph2.6 kmh 30.10 in1019.3 mb 0.00 in0.0 mm 0.00 in0.0 mm 0.05 in1.3 mm
12:55 AM 60.8°F16.0°C 56.6°F13.7°C 86% Calm Calm -- 30.10 in1019.3 mb 0.00 in0.0 mm 0.00 in0.0 mm 0.05 in1.3 mm
01:00 AM 60.6°F15.9°C 56.7°F13.7°C 87% Calm Calm -- 30.10 in1019.3 mb 0.00 in0.0 mm 0.00 in0.0 mm 0.00 in0.0 mm
01:05 AM 60.6°F15.9°C 56.7°F13.7°C 87% Calm Calm -- 30.10 in1019.3 mb 0.00 in0.0 mm 0.00 in0.0 mm 0.00 in0.0 mm
01:10 AM 60.4°F15.8°C 56.9°F13.8°C 88% Calm Calm -- 30.10 in1019.3 mb 0.00 in0.0 mm 0.00 in0.0 mm 0.00 in0.0 mm
01:15 AM 60.4°F15.8°C 56.9°F13.8°C 88% Calm Calm -- 30.10 in1019.3 mb 0.00 in0.0 mm 0.00 in0.0 mm 0.00 in0.0 mm
01:20 AM 60.3°F15.7°C 56.7°F13.7°C 88% 0.7 mph N1.1 kmh N 2.2 mph3.5 kmh 30.10 in1019.3 mb 0.00 in0.0 mm 0.00 in0.0 mm 0.00 in0.0 mm
01:25 AM 60.1°F15.6°C 56.8°F13.8°C 89% Calm Calm 2.2 mph3.5 kmh 30.10 in1019.3 mb 0.00 in0.0 mm 0.00 in0.0 mm 0.00 in0.0 mm
01:30 AM 59.9°F15.5°C 56.7°F13.7°C 89% Calm Calm 1.6 mph2.6 kmh 30.10 in1019.3 mb 0.00 in0.0 mm 0.00 in0.0 mm 0.00 in0.0 mm
01:35 AM 59.9°F15.5°C 56.7°F13.7°C 89% 0.7 mph N1.1 kmh N 1.6 mph2.6 kmh 30.09 in1019.0 mb 0.00 in0.0 mm 0.00 in0.0 mm 0.00 in0.0 mm
01:40 AM 59.7°F15.4°C 56.5°F13.6°C 89% Calm Calm 1.6 mph2.6 kmh 30.10 in1019.3 mb 0.00 in0.0 mm 0.00 in0.0 mm 0.00 in0.0 mm
01:45 AM 59.5°F15.3°C 56.6°F13.7°C 90% Calm Calm 0.7 mph1.1 kmh 30.10 in1019.3 mb 0.00 in0.0 mm 0.00 in0.0 mm 0.00 in0.0 mm
01:50 AM 59.5°F15.3°C 56.6°F13.7°C 90% Calm Calm -- 30.10 in1019.3 mb 0.00 in0.0 mm 0.00 in0.0 mm 0.00 in0.0 mm
01:55 AM 59.5°F15.3°C 56.9°F13.8°C 91% Calm Calm -- 30.10 in1019.3 mb 0.00 in0.0 mm 0.00 in0.0 mm 0.00 in0.0 mm
02:00 AM 59.5°F15.3°C 56.9°F13.8°C 91% 1.6 mph NW2.6 kmh NW 3.1 mph5.0 kmh 30.11 in1019.6 mb 0.00 in0.0 mm 0.00 in0.0 mm 0.00 in0.0 mm
02:05 AM 59.4°F15.2°C 56.7°F13.7°C 91% 1.6 mph WNW2.6 kmh WNW 3.1 mph5.0 kmh 30.11 in1019.6 mb 0.00 in0.0 mm 0.00 in0.0 mm 0.00 in0.0 mm
02:10 AM 59.4°F15.2°C 56.7°F13.7°C 91% Calm Calm 3.1 mph5.0 kmh 30.11 in1019.6 mb 0.00 in0.0 mm 0.00 in0.0 mm 0.00 in0.0 mm
02:15 AM 59.2°F15.1°C 56.3°F13.5°C 90% Calm Calm 2.2 mph3.5 kmh 30.10 in1019.3 mb 0.00 in0.0 mm 0.00 in0.0 mm 0.00 in0.0 mm
02:20 AM 59.2°F15.1°C 56.3°F13.5°C 90% 0.7 mph W1.1 kmh W 1.6 mph2.6 kmh 30.11 in1019.6 mb 0.00 in0.0 mm 0.00 in0.0 mm 0.00 in0.0 mm
02:25 AM 59.2°F15.1°C 56.3°F13.5°C 90% 0.7 mph WNW1.1 kmh WNW 1.6 mph2.6 kmh 30.10 in1019.3 mb 0.00 in0.0 mm 0.00 in0.0 mm 0.00 in0.0 mm
02:30 AM 59.0°F15.0°C 56.4°F13.6°C 91% Calm Calm 1.6 mph2.6 kmh 30.11 in1019.6 mb 0.00 in0.0 mm 0.00 in0.0 mm 0.00 in0.0 mm
02:35 AM 59.0°F15.0°C 56.4°F13.6°C 91% 1.6 mph NE2.6 kmh NE 2.2 mph3.5 kmh 30.11 in1019.6 mb 0.00 in0.0 mm 0.00 in0.0 mm 0.00 in0.0 mm
02:40 AM 58.8°F14.9°C 56.8°F13.8°C 93% 0.7 mph ENE1.1 kmh ENE 2.2 mph3.5 kmh 30.11 in1019.6 mb 0.00 in0.0 mm 0.00 in0.0 mm 0.00 in0.0 mm
02:45 AM 58.8°F14.9°C 56.8°F13.8°C 93% Calm Calm 3.1 mph5.0 kmh 30.11 in1019.6 mb 0.00 in0.0 mm 0.00 in0.0 mm 0.00 in0.0 mm
02:50 AM 58.8°F14.9°C 56.8°F13.8°C 93% 1.6 mph NNE2.6 kmh NNE 3.1 mph5.0 kmh 30.11 in1019.6 mb 0.00 in0.0 mm 0.00 in0.0 mm 0.00 in0.0 mm
02:55 AM 58.8°F14.9°C 56.8°F13.8°C 93% Calm Calm 2.2 mph3.5 kmh 30.11 in1019.6 mb 0.00 in0.0 mm 0.00 in0.0 mm 0.00 in0.0 mm
03:00 AM 58.6°F14.8°C 56.9°F13.8°C 94% 1.6 mph NW2.6 kmh NW 2.2 mph3.5 kmh 30.11 in1019.6 mb 0.00 in0.0 mm 0.00 in0.0 mm 0.00 in0.0 mm
03:05 AM 58.6°F14.8°C 56.9°F13.8°C 94% 1.6 mph NNW2.6 kmh NNW 2.2 mph3.5 kmh 30.11 in1019.6 mb 0.00 in0.0 mm 0.00 in0.0 mm 0.00 in0.0 mm
03:10 AM 58.5°F14.7°C 56.8°F13.8°C 94% 0.7 mph NNW1.1 kmh NNW 2.2 mph3.5 kmh 30.11 in1019.6 mb 0.00 in0.0 mm 0.00 in0.0 mm 0.00 in0.0 mm
03:15 AM 58.3°F14.6°C 56.6°F13.7°C 94% Calm Calm 2.2 mph3.5 kmh 30.11 in1019.6 mb 0.00 in0.0 mm 0.00 in0.0 mm 0.00 in0.0 mm
03:20 AM 58.3°F14.6°C 56.9°F13.8°C 95% Calm Calm 1.6 mph2.6 kmh 30.11 in1019.6 mb 0.00 in0.0 mm 0.00 in0.0 mm 0.00 in0.0 mm
03:25 AM 58.1°F14.5°C 56.7°F13.7°C 95% 1.6 mph NNW2.6 kmh NNW 2.2 mph3.5 kmh 30.11 in1019.6 mb 0.00 in0.0 mm 0.00 in0.0 mm 0.00 in0.0 mm
03:30 AM 58.1°F14.5°C 56.7°F13.7°C 95% Calm Calm 2.2 mph3.5 kmh 30.11 in1019.6 mb 0.00 in0.0 mm 0.00 in0.0 mm 0.00 in0.0 mm
03:35 AM 57.9°F14.4°C 56.5°F13.6°C 95% Calm Calm 2.2 mph3.5 kmh 30.11 in1019.6 mb 0.00 in0.0 mm 0.00 in0.0 mm 0.00 in0.0 mm
03:40 AM 57.9°F14.4°C 56.5°F13.6°C 95% Calm Calm 1.6 mph2.6 kmh 30.11 in1019.6 mb 0.00 in0.0 mm 0.00 in0.0 mm 0.00 in0.0 mm
03:45 AM 57.7°F14.3°C 56.3°F13.5°C 95% 3.1 mph E5.0 kmh E 3.8 mph6.1 kmh 30.11 in1019.6 mb 0.00 in0.0 mm 0.00 in0.0 mm 0.00 in0.0 mm
03:50 AM 57.9°F14.4°C 56.5°F13.6°C 95% 2.2 mph E3.5 kmh E 3.8 mph6.1 kmh 30.11 in1019.6 mb 0.00 in0.0 mm 0.00 in0.0 mm 0.00 in0.0 mm
03:55 AM 58.1°F14.5°C 56.7°F13.7°C 95% 0.7 mph E1.1 kmh E 3.8 mph6.1 kmh 30.11 in1019.6 mb 0.00 in0.0 mm 0.00 in0.0 mm 0.00 in0.0 mm
04:00 AM 57.9°F14.4°C 56.5°F13.6°C 95% Calm Calm 3.1 mph5.0 kmh 30.11 in1019.6 mb 0.00 in0.0 mm 0.00 in0.0 mm 0.00 in0.0 mm
04:05 AM 57.9°F14.4°C 56.5°F13.6°C 95% Calm Calm 1.6 mph2.6 kmh 30.11 in1019.6 mb 0.00 in0.0 mm 0.00 in0.0 mm 0.00 in0.0 mm
04:10 AM 57.7°F14.3°C 56.3°F13.5°C 95% Calm Calm 0.7 mph1.1 kmh 30.11 in1019.6 mb 0.00 in0.0 mm 0.00 in0.0 mm 0.00 in0.0 mm
04:15 AM 57.7°F14.3°C 56.3°F13.5°C 95% Calm Calm 0.7 mph1.1 kmh 30.11 in1019.6 mb 0.00 in0.0 mm 0.00 in0.0 mm 0.00 in0.0 mm
04:20 AM 57.6°F14.2°C 56.1°F13.4°C 95% 1.6 mph N2.6 kmh N 3.1 mph5.0 kmh 30.12 in1020.0 mb 0.00 in0.0 mm 0.00 in0.0 mm 0.00 in0.0 mm
04:25 AM 57.4°F14.1°C 56.0°F13.3°C 95% 0.7 mph N1.1 kmh N 3.1 mph5.0 kmh 30.12 in1020.0 mb 0.00 in0.0 mm 0.00 in0.0 mm 0.00 in0.0 mm
04:30 AM 57.2°F14.0°C 55.8°F13.2°C 95% 0.7 mph N1.1 kmh N 2.2 mph3.5 kmh 30.12 in1020.0 mb 0.00 in0.0 mm 0.00 in0.0 mm 0.00 in0.0 mm
04:35 AM 57.0°F13.9°C 55.9°F13.3°C 96% Calm Calm 1.6 mph2.6 kmh 30.12 in1020.0 mb 0.00 in0.0 mm 0.00 in0.0 mm 0.00 in0.0 mm
04:40 AM 56.8°F13.8°C 55.7°F13.2°C 96% Calm Calm 0.7 mph1.1 kmh 30.12 in1020.0 mb 0.00 in0.0 mm 0.00 in0.0 mm 0.00 in0.0 mm
04:45 AM 56.7°F13.7°C 55.8°F13.2°C 97% 1.6 mph ENE2.6 kmh ENE 3.1 mph5.0 kmh 30.11 in1019.6 mb 0.00 in0.0 mm 0.00 in0.0 mm 0.00 in0.0 mm
04:50 AM 56.7°F13.7°C 55.8°F13.2°C 97% 0.7 mph E1.1 kmh E 3.1 mph5.0 kmh 30.11 in1019.6 mb 0.00 in0.0 mm 0.00 in0.0 mm 0.00 in0.0 mm
04:55 AM 56.5°F13.6°C 55.6°F13.1°C 97% 0.7 mph E1.1 kmh E 3.1 mph5.0 kmh 30.11 in1019.6 mb 0.00 in0.0 mm 0.00 in0.0 mm 0.00 in0.0 mm
05:00 AM 55.9°F13.3°C 55.1°F12.8°C 97% Calm Calm 2.2 mph3.5 kmh 30.12 in1020.0 mb 0.00 in0.0 mm 0.00 in0.0 mm 0.00 in0.0 mm
05:05 AM 55.9°F13.3°C 55.1°F12.8°C 97% Calm Calm -- 30.12 in1020.0 mb 0.00 in0.0 mm 0.00 in0.0 mm 0.00 in0.0 mm
05:10 AM 55.4°F13.0°C 54.6°F12.6°C 97% 0.7 mph SE1.1 kmh SE 1.6 mph2.6 kmh 30.13 in1020.3 mb 0.00 in0.0 mm 0.00 in0.0 mm 0.00 in0.0 mm
05:15 AM 55.4°F13.0°C 54.6°F12.6°C 97% 0.7 mph E1.1 kmh E 2.2 mph3.5 kmh 30.13 in1020.3 mb 0.00 in0.0 mm 0.00 in0.0 mm 0.00 in0.0 mm
05:20 AM 55.2°F12.9°C 54.4°F12.4°C 97% 0.7 mph E1.1 kmh E 2.2 mph3.5 kmh 30.12 in1020.0 mb 0.00 in0.0 mm 0.00 in0.0 mm 0.00 in0.0 mm
05:25 AM 55.0°F12.8°C 54.2°F12.3°C 97% 0.7 mph E1.1 kmh E 2.2 mph3.5 kmh 30.12 in1020.0 mb 0.00 in0.0 mm 0.00 in0.0 mm 0.00 in0.0 mm
05:30 AM 54.7°F12.6°C 53.9°F12.2°C 97% 0.7 mph NE1.1 kmh NE 3.1 mph5.0 kmh 30.12 in1020.0 mb 0.00 in0.0 mm 0.00 in0.0 mm 0.00 in0.0 mm
05:35 AM 54.5°F12.5°C 53.7°F12.1°C 97% Calm Calm 3.1 mph5.0 kmh 30.12 in1020.0 mb 0.00 in0.0 mm 0.00 in0.0 mm 0.00 in0.0 mm
05:40 AM 54.1°F12.3°C 53.3°F11.8°C 97% 1.6 mph N2.6 kmh N 2.2 mph3.5 kmh 30.12 in1020.0 mb 0.00 in0.0 mm 0.00 in0.0 mm 0.00 in0.0 mm
05:45 AM 54.0°F12.2°C 53.1°F11.7°C 97% 1.6 mph N2.6 kmh N 3.1 mph5.0 kmh 30.12 in1020.0 mb 0.00 in0.0 mm 0.00 in0.0 mm 0.00 in0.0 mm
05:50 AM 53.6°F12.0°C 52.8°F11.6°C 97% 1.6 mph N2.6 kmh N 3.1 mph5.0 kmh 30.12 in1020.0 mb 0.00 in0.0 mm 0.00 in0.0 mm 0.00 in0.0 mm
05:55 AM 53.4°F11.9°C 52.9°F11.6°C 98% Calm Calm 2.2 mph3.5 kmh 30.13 in1020.3 mb 0.00 in0.0 mm 0.00 in0.0 mm 0.00 in0.0 mm
06:00 AM 53.2°F11.8°C 52.7°F11.5°C 98% Calm Calm 2.2 mph3.5 kmh 30.13 in1020.3 mb 0.00 in0.0 mm 0.00 in0.0 mm 0.00 in0.0 mm
06:05 AM 53.2°F11.8°C 52.7°F11.5°C 98% Calm Calm 1.6 mph2.6 kmh 30.13 in1020.3 mb 0.00 in0.0 mm 0.00 in0.0 mm 0.00 in0.0 mm
06:10 AM 53.1°F11.7°C 52.5°F11.4°C 98% 1.6 mph SE2.6 kmh SE 2.2 mph3.5 kmh 30.13 in1020.3 mb 0.00 in0.0 mm 0.00 in0.0 mm 0.00 in0.0 mm
06:15 AM 53.1°F11.7°C 52.5°F11.4°C 98% 1.6 mph E2.6 kmh E 2.2 mph3.5 kmh 30.12 in1020.0 mb 0.00 in0.0 mm 0.00 in0.0 mm 0.00 in0.0 mm
06:20 AM 53.1°F11.7°C 52.5°F11.4°C 98% 1.6 mph E2.6 kmh E 3.8 mph6.1 kmh 30.14 in1020.7 mb 0.00 in0.0 mm 0.00 in0.0 mm 0.00 in0.0 mm
06:25 AM 53.1°F11.7°C 52.5°F11.4°C 98% 0.7 mph ENE1.1 kmh ENE 3.8 mph6.1 kmh 30.13 in1020.3 mb 0.00 in0.0 mm 0.00 in0.0 mm 0.00 in0.0 mm
06:30 AM 52.9°F11.6°C 52.3°F11.3°C 98% 1.6 mph NE2.6 kmh NE 2.2 mph3.5 kmh 30.14 in1020.7 mb 0.00 in0.0 mm 0.00 in0.0 mm 0.00 in0.0 mm
06:35 AM 52.7°F11.5°C 52.2°F11.2°C 98% 1.6 mph NNE2.6 kmh NNE 2.2 mph3.5 kmh 30.14 in1020.7 mb 0.00 in0.0 mm 0.00 in0.0 mm 0.00 in0.0 mm
06:40 AM 52.5°F11.4°C 52.0°F11.1°C 98% 1.6 mph NE2.6 kmh NE 2.2 mph3.5 kmh 30.14 in1020.7 mb 0.00 in0.0 mm 0.00 in0.0 mm 0.00 in0.0 mm
06:45 AM 52.5°F11.4°C 52.0°F11.1°C 98% 1.6 mph E2.6 kmh E 3.1 mph5.0 kmh 30.14 in1020.7 mb 0.00 in0.0 mm 0.00 in0.0 mm 0.00 in0.0 mm
06:50 AM 52.5°F11.4°C 52.0°F11.1°C 98% 1.6 mph E2.6 kmh E 3.1 mph5.0 kmh 30.15 in1021.0 mb 0.00 in0.0 mm 0.00 in0.0 mm 0.00 in0.0 mm
06:55 AM 52.5°F11.4°C 52.0°F11.1°C 98% 1.6 mph E2.6 kmh E 2.2 mph3.5 kmh 30.15 in1021.0 mb 0.00 in0.0 mm 0.00 in0.0 mm 0.00 in0.0 mm
07:00 AM 52.7°F11.5°C 52.2°F11.2°C 98% 0.7 mph E1.1 kmh E 2.2 mph3.5 kmh 30.14 in1020.7 mb 0.00 in0.0 mm 0.00 in0.0 mm 0.00 in0.0 mm
07:05 AM 52.7°F11.5°C 52.2°F11.2°C 98% 0.7 mph ESE1.1 kmh ESE 2.2 mph3.5 kmh 30.15 in1021.0 mb 0.00 in0.0 mm 0.00 in0.0 mm 0.00 in0.0 mm
07:10 AM 53.1°F11.7°C 52.5°F11.4°C 98% 2.2 mph SE3.5 kmh SE 3.8 mph6.1 kmh 30.14 in1020.7 mb 0.00 in0.0 mm 0.00 in0.0 mm 0.00 in0.0 mm
07:15 AM 53.4°F11.9°C 52.9°F11.6°C 98% Calm Calm 3.8 mph6.1 kmh 30.15 in1021.0 mb 0.00 in0.0 mm 0.00 in0.0 mm 0.00 in0.0 mm
07:20 AM 54.0°F12.2°C 53.1°F11.7°C 97% Calm Calm 3.8 mph6.1 kmh 30.15 in1021.0 mb 0.00 in0.0 mm 0.00 in0.0 mm 0.00 in0.0 mm
07:25 AM 54.1°F12.3°C 53.3°F11.8°C 97% Calm Calm 1.6 mph2.6 kmh 30.15 in1021.0 mb 0.00 in0.0 mm 0.00 in0.0 mm 0.00 in0.0 mm
07:30 AM 54.1°F12.3°C 53.3°F11.8°C 97% Calm Calm 1.6 mph2.6 kmh 30.15 in1021.0 mb 0.00 in0.0 mm 0.00 in0.0 mm 0.00 in0.0 mm
07:35 AM 54.3°F12.4°C 53.5°F11.9°C 97% 1.6 mph E2.6 kmh E 2.2 mph3.5 kmh 30.15 in1021.0 mb 0.00 in0.0 mm 0.00 in0.0 mm 0.00 in0.0 mm
07:40 AM 54.7°F12.6°C 53.9°F12.2°C 97% Calm Calm 2.2 mph3.5 kmh 30.15 in1021.0 mb 0.00 in0.0 mm 0.00 in0.0 mm 0.00 in0.0 mm
07:45 AM 55.2°F12.9°C 54.4°F12.4°C 97% 0.7 mph E1.1 kmh E 2.2 mph3.5 kmh 30.15 in1021.0 mb 0.00 in0.0 mm 0.00 in0.0 mm 0.00 in0.0 mm
07:50 AM 56.1°F13.4°C 55.6°F13.1°C 98% Calm Calm 1.6 mph2.6 kmh 30.15 in1021.0 mb 0.00 in0.0 mm 0.00 in0.0 mm 0.00 in0.0 mm
07:55 AM 57.2°F14.0°C 56.1°F13.4°C 96% Calm Calm 1.6 mph2.6 kmh 30.16 in1021.3 mb 0.00 in0.0 mm 0.00 in0.0 mm 0.00 in0.0 mm
08:00 AM 58.3°F14.6°C 56.9°F13.8°C 95% 1.6 mph NW2.6 kmh NW 2.2 mph3.5 kmh 30.16 in1021.3 mb 0.00 in0.0 mm 0.00 in0.0 mm 0.00 in0.0 mm
08:05 AM 59.0°F15.0°C 57.0°F13.9°C 93% Calm Calm 2.2 mph3.5 kmh 30.16 in1021.3 mb 0.00 in0.0 mm 0.00 in0.0 mm 0.00 in0.0 mm
08:10 AM 59.5°F15.3°C 56.6°F13.7°C 90% Calm Calm 2.2 mph3.5 kmh 30.16 in1021.3 mb 0.00 in0.0 mm 0.00 in0.0 mm 0.00 in0.0 mm
08:15 AM 60.1°F15.6°C 56.5°F13.6°C 88% Calm Calm 0.7 mph1.1 kmh 30.16 in1021.3 mb 0.00 in0.0 mm 0.00 in0.0 mm 0.00 in0.0 mm
08:20 AM 60.8°F16.0°C 56.3°F13.5°C 85% 0.7 mph NW1.1 kmh NW 1.6 mph2.6 kmh 30.16 in1021.3 mb 0.00 in0.0 mm 0.00 in0.0 mm 0.00 in0.0 mm
08:25 AM 61.2°F16.2°C 56.3°F13.5°C 84% 0.7 mph NW1.1 kmh NW 1.6 mph2.6 kmh 30.16 in1021.3 mb 0.00 in0.0 mm 0.00 in0.0 mm 0.00 in0.0 mm
08:30 AM 61.7°F16.5°C 56.5°F13.6°C 83% 0.7 mph NNW1.1 kmh NNW 1.6 mph2.6 kmh 30.16 in1021.3 mb 0.00 in0.0 mm 0.00 in0.0 mm 0.00 in0.0 mm
08:35 AM 62.4°F16.9°C 57.2°F14.0°C 83% 0.7 mph N1.1 kmh N 1.6 mph2.6 kmh 30.16 in1021.3 mb 0.00 in0.0 mm 0.00 in0.0 mm 0.00 in0.0 mm
08:40 AM 63.3°F17.4°C 57.4°F14.1°C 81% 1.6 mph SE2.6 kmh SE 2.2 mph3.5 kmh 30.16 in1021.3 mb 0.00 in0.0 mm 0.00 in0.0 mm 0.00 in0.0 mm
08:45 AM 63.9°F17.7°C 57.2°F14.0°C 79% 1.6 mph WSW2.6 kmh WSW 3.1 mph5.0 kmh 30.16 in1021.3 mb 0.00 in0.0 mm 0.00 in0.0 mm 0.00 in0.0 mm
08:50 AM 64.6°F18.1°C 57.2°F14.0°C 77% 1.6 mph W2.6 kmh W 3.1 mph5.0 kmh 30.17 in1021.7 mb 0.00 in0.0 mm 0.00 in0.0 mm 0.00 in0.0 mm
08:55 AM 64.9°F18.3°C 57.2°F14.0°C 76% 1.6 mph W2.6 kmh W 3.1 mph5.0 kmh 30.17 in1021.7 mb 0.00 in0.0 mm 0.00 in0.0 mm 0.00 in0.0 mm
09:00 AM 65.1°F18.4°C 57.0°F13.9°C 75% 1.6 mph WSW2.6 kmh WSW 3.8 mph6.1 kmh 30.16 in1021.3 mb 0.00 in0.0 mm 0.00 in0.0 mm 0.00 in0.0 mm
09:05 AM 65.5°F18.6°C 56.6°F13.7°C 73% 2.2 mph S3.5 kmh S 3.8 mph6.1 kmh 30.16 in1021.3 mb 0.00 in0.0 mm 0.00 in0.0 mm 0.00 in0.0 mm
09:10 AM 65.8°F18.8°C 56.6°F13.7°C 72% 1.6 mph SW2.6 kmh SW 3.8 mph6.1 kmh 30.16 in1021.3 mb 0.00 in0.0 mm 0.00 in0.0 mm 0.00 in0.0 mm
09:15 AM 66.2°F19.0°C 56.9°F13.8°C 72% 2.2 mph WNW3.5 kmh WNW 3.8 mph6.1 kmh 30.16 in1021.3 mb 0.00 in0.0 mm 0.00 in0.0 mm 0.00 in0.0 mm
09:20 AM 66.2°F19.0°C 56.1°F13.4°C 70% 2.2 mph NW3.5 kmh NW 6.9 mph11.1 kmh 30.16 in1021.3 mb 0.00 in0.0 mm 0.00 in0.0 mm 0.00 in0.0 mm
09:25 AM 66.4°F19.1°C 56.3°F13.5°C 70% 3.8 mph NW6.1 kmh NW 6.9 mph11.1 kmh 30.16 in1021.3 mb 0.00 in0.0 mm 0.00 in0.0 mm 0.00 in0.0 mm
09:30 AM 66.6°F19.2°C 56.9°F13.8°C 71% 2.2 mph NW3.5 kmh NW 6.0 mph9.7 kmh 30.16 in1021.3 mb 0.00 in0.0 mm 0.00 in0.0 mm 0.00 in0.0 mm
09:35 AM 66.7°F19.3°C 56.7°F13.7°C 70% 1.6 mph WNW2.6 kmh WNW 7.6 mph12.2 kmh 30.16 in1021.3 mb 0.00 in0.0 mm 0.00 in0.0 mm 0.00 in0.0 mm
09:40 AM 66.9°F19.4°C 56.0°F13.3°C 68% 0.7 mph W1.1 kmh W 7.6 mph12.2 kmh 30.17 in1021.7 mb 0.00 in0.0 mm 0.00 in0.0 mm 0.00 in0.0 mm
09:45 AM 67.5°F19.7°C 57.0°F13.9°C 69% 3.1 mph W5.0 kmh W 5.4 mph8.7 kmh 30.16 in1021.3 mb 0.00 in0.0 mm 0.00 in0.0 mm 0.00 in0.0 mm
09:50 AM 68.0°F20.0°C 56.2°F13.4°C 66% 3.8 mph SW6.1 kmh SW 6.0 mph9.7 kmh 30.16 in1021.3 mb 0.00 in0.0 mm 0.00 in0.0 mm 0.00 in0.0 mm
09:55 AM 68.0°F20.0°C 55.8°F13.2°C 65% 3.8 mph W6.1 kmh W 6.0 mph9.7 kmh 30.16 in1021.3 mb 0.00 in0.0 mm 0.00 in0.0 mm 0.00 in0.0 mm
10:00 AM 68.4°F20.2°C 56.2°F13.4°C 65% 3.1 mph NW5.0 kmh NW 6.0 mph9.7 kmh 30.16 in1021.3 mb 0.00 in0.0 mm 0.00 in0.0 mm 0.00 in0.0 mm
10:05 AM 68.7°F20.4°C 56.1°F13.4°C 64% 2.2 mph NW3.5 kmh NW 6.0 mph9.7 kmh 30.16 in1021.3 mb 0.00 in0.0 mm 0.00 in0.0 mm 0.00 in0.0 mm
10:10 AM 69.1°F20.6°C 56.4°F13.6°C 64% 1.6 mph NW2.6 kmh NW 6.0 mph9.7 kmh 30.16 in1021.3 mb 0.00 in0.0 mm 0.00 in0.0 mm 0.00 in0.0 mm
10:15 AM 69.4°F20.8°C 55.9°F13.3°C 62% 3.1 mph W5.0 kmh W 6.0 mph9.7 kmh 30.16 in1021.3 mb 0.00 in0.0 mm 0.00 in0.0 mm 0.00 in0.0 mm
10:20 AM 69.6°F20.9°C 55.6°F13.1°C 61% 1.6 mph W2.6 kmh W 6.0 mph9.7 kmh 30.16 in1021.3 mb 0.00 in0.0 mm 0.00 in0.0 mm 0.00 in0.0 mm
10:25 AM 69.8°F21.0°C 53.9°F12.2°C 57% 3.1 mph WSW5.0 kmh WSW 5.4 mph8.7 kmh 30.17 in1021.7 mb 0.00 in0.0 mm 0.00 in0.0 mm 0.00 in0.0 mm
10:30 AM 70.3°F21.3°C 54.9°F12.7°C 58% 2.2 mph W3.5 kmh W 5.4 mph8.7 kmh 30.16 in1021.3 mb 0.00 in0.0 mm 0.00 in0.0 mm 0.00 in0.0 mm
10:35 AM 70.3°F21.3°C 54.4°F12.4°C 57% 4.5 mph NW7.2 kmh NW 6.9 mph11.1 kmh 30.16 in1021.3 mb 0.00 in0.0 mm 0.00 in0.0 mm 0.00 in0.0 mm
10:40 AM 70.0°F21.1°C 53.6°F12.0°C 56% 2.2 mph NW3.5 kmh NW 6.9 mph11.1 kmh 30.16 in1021.3 mb 0.00 in0.0 mm 0.00 in0.0 mm 0.00 in0.0 mm
10:45 AM 70.2°F21.2°C 54.2°F12.3°C 57% 2.2 mph WSW3.5 kmh WSW 6.9 mph11.1 kmh 30.16 in1021.3 mb 0.00 in0.0 mm 0.00 in0.0 mm 0.00 in0.0 mm
10:50 AM 70.9°F21.6°C 54.4°F12.4°C 56% 3.1 mph SSW5.0 kmh SSW 6.9 mph11.1 kmh 30.16 in1021.3 mb 0.00 in0.0 mm 0.00 in0.0 mm 0.00 in0.0 mm
10:55 AM 71.6°F22.0°C 53.6°F12.0°C 53% 3.1 mph SW5.0 kmh SW 5.4 mph8.7 kmh 30.16 in1021.3 mb 0.00 in0.0 mm 0.00 in0.0 mm 0.00 in0.0 mm
11:00 AM 71.8°F22.1°C 52.7°F11.5°C 51% 3.1 mph SSW5.0 kmh SSW 6.0 mph9.7 kmh 30.16 in1021.3 mb 0.00 in0.0 mm 0.00 in0.0 mm 0.00 in0.0 mm
11:05 AM 71.8°F22.1°C 52.7°F11.5°C 51% 3.1 mph S5.0 kmh S 6.0 mph9.7 kmh 30.16 in1021.3 mb 0.00 in0.0 mm 0.00 in0.0 mm 0.00 in0.0 mm
11:10 AM 72.1°F22.3°C 53.0°F11.7°C 51% 3.8 mph SSW6.1 kmh SSW 5.4 mph8.7 kmh 30.16 in1021.3 mb 0.00 in0.0 mm 0.00 in0.0 mm 0.00 in0.0 mm
11:15 AM 72.3°F22.4°C 53.2°F11.8°C 51% 2.2 mph WNW3.5 kmh WNW 8.3 mph13.4 kmh 30.16 in1021.3 mb 0.00 in0.0 mm 0.00 in0.0 mm 0.00 in0.0 mm
11:20 AM 72.3°F22.4°C 53.2°F11.8°C 51% 3.1 mph NW5.0 kmh NW 8.3 mph13.4 kmh 30.16 in1021.3 mb 0.00 in0.0 mm 0.00 in0.0 mm 0.00 in0.0 mm
11:25 AM 72.7°F22.6°C 53.5°F11.9°C 51% 2.2 mph WSW3.5 kmh WSW 6.9 mph11.1 kmh 30.15 in1021.0 mb 0.00 in0.0 mm 0.00 in0.0 mm 0.00 in0.0 mm
11:30 AM 73.2°F22.9°C 53.5°F11.9°C 50% 4.5 mph SW7.2 kmh SW 6.9 mph11.1 kmh 30.15 in1021.0 mb 0.00 in0.0 mm 0.00 in0.0 mm 0.00 in0.0 mm
11:35 AM 73.2°F22.9°C 50.6°F10.3°C 45% 3.1 mph SSW5.0 kmh SSW 6.9 mph11.1 kmh 30.15 in1021.0 mb 0.00 in0.0 mm 0.00 in0.0 mm 0.00 in0.0 mm
11:40 AM 72.9°F22.7°C 50.9°F10.5°C 46% 2.2 mph SE3.5 kmh SE 6.9 mph11.1 kmh 30.15 in1021.0 mb 0.00 in0.0 mm 0.00 in0.0 mm 0.00 in0.0 mm
11:45 AM 73.2°F22.9°C 52.4°F11.3°C 48% 3.1 mph ESE5.0 kmh ESE 6.9 mph11.1 kmh 30.15 in1021.0 mb 0.00 in0.0 mm 0.00 in0.0 mm 0.00 in0.0 mm
11:50 AM 73.6°F23.1°C 52.1°F11.2°C 47% 5.4 mph S8.7 kmh S 8.3 mph13.4 kmh 30.14 in1020.7 mb 0.00 in0.0 mm 0.00 in0.0 mm 0.00 in0.0 mm
11:55 AM 73.6°F23.1°C 51.6°F10.9°C 46% 1.6 mph S2.6 kmh S 8.3 mph13.4 kmh 30.15 in1021.0 mb 0.00 in0.0 mm 0.00 in0.0 mm 0.00 in0.0 mm
12:00 PM 73.8°F23.2°C 52.3°F11.3°C 47% 3.8 mph SSE6.1 kmh SSE 8.3 mph13.4 kmh 30.14 in1020.7 mb 0.00 in0.0 mm 0.00 in0.0 mm 0.00 in0.0 mm
12:05 PM 74.3°F23.5°C 53.4°F11.9°C 48% 4.5 mph SSW7.2 kmh SSW 8.3 mph13.4 kmh 30.14 in1020.7 mb 0.00 in0.0 mm 0.00 in0.0 mm 0.00 in0.0 mm
12:10 PM 74.3°F23.5°C 52.8°F11.6°C 47% 6.0 mph W9.7 kmh W 8.3 mph13.4 kmh 30.14 in1020.7 mb 0.00 in0.0 mm 0.00 in0.0 mm 0.00 in0.0 mm
12:15 PM 74.5°F23.6°C 53.0°F11.7°C 47% 1.6 mph SW2.6 kmh SW 8.3 mph13.4 kmh 30.14 in1020.7 mb 0.00 in0.0 mm 0.00 in0.0 mm 0.00 in0.0 mm
12:20 PM 74.8°F23.8°C 53.3°F11.8°C 47% 1.6 mph S2.6 kmh S 8.3 mph13.4 kmh 30.14 in1020.7 mb 0.00 in0.0 mm 0.00 in0.0 mm 0.00 in0.0 mm
12:25 PM 75.0°F23.9°C 54.6°F12.6°C 49% 0.7 mph SE1.1 kmh SE 4.5 mph7.2 kmh 30.14 in1020.7 mb 0.00 in0.0 mm 0.00 in0.0 mm 0.00 in0.0 mm
12:30 PM 75.2°F24.0°C 52.4°F11.3°C 45% 5.4 mph NNW8.7 kmh NNW 9.8 mph15.8 kmh 30.14 in1020.7 mb 0.00 in0.0 mm 0.00 in0.0 mm 0.00 in0.0 mm
12:35 PM 75.2°F24.0°C 51.2°F10.7°C 43% 7.6 mph NW12.2 kmh NW 10.7 mph17.2 kmh 30.13 in1020.3 mb 0.00 in0.0 mm 0.00 in0.0 mm 0.00 in0.0 mm
12:40 PM 75.0°F23.9°C 52.9°F11.6°C 46% 3.1 mph W5.0 kmh W 10.7 mph17.2 kmh 30.14 in1020.7 mb 0.00 in0.0 mm 0.00 in0.0 mm 0.00 in0.0 mm
12:45 PM 75.2°F24.0°C 52.4°F11.3°C 45% 3.1 mph SSW5.0 kmh SSW 9.8 mph15.8 kmh 30.13 in1020.3 mb 0.00 in0.0 mm 0.00 in0.0 mm 0.00 in0.0 mm
12:50 PM 75.4°F24.1°C 52.0°F11.1°C 44% 7.6 mph W12.2 kmh W 9.8 mph15.8 kmh 30.14 in1020.7 mb 0.00 in0.0 mm 0.00 in0.0 mm 0.00 in0.0 mm
12:55 PM 75.2°F24.0°C 51.8°F11.0°C 44% 5.4 mph NW8.7 kmh NW 9.8 mph15.8 kmh 30.13 in1020.3 mb 0.00 in0.0 mm 0.00 in0.0 mm 0.00 in0.0 mm
01:00 PM 75.4°F24.1°C 52.6°F11.4°C 45% 6.0 mph NW9.7 kmh NW 9.8 mph15.8 kmh 30.14 in1020.7 mb 0.00 in0.0 mm 0.00 in0.0 mm 0.00 in0.0 mm
01:05 PM 75.4°F24.1°C 52.6°F11.4°C 45% 6.0 mph NW9.7 kmh NW 9.2 mph14.8 kmh 30.13 in1020.3 mb 0.00 in0.0 mm 0.00 in0.0 mm 0.00 in0.0 mm
01:10 PM 75.7°F24.3°C 52.3°F11.3°C 44% 3.8 mph NW6.1 kmh NW 10.7 mph17.2 kmh 30.13 in1020.3 mb 0.00 in0.0 mm 0.00 in0.0 mm 0.00 in0.0 mm
01:15 PM 75.9°F24.4°C 52.5°F11.4°C 44% 6.9 mph NW11.1 kmh NW 10.7 mph17.2 kmh 30.13 in1020.3 mb 0.00 in0.0 mm 0.00 in0.0 mm 0.00 in0.0 mm
01:20 PM 75.7°F24.3°C 50.4°F10.2°C 41% 2.2 mph WNW3.5 kmh WNW 9.8 mph15.8 kmh 30.12 in1020.0 mb 0.00 in0.0 mm 0.00 in0.0 mm 0.00 in0.0 mm
01:25 PM 75.9°F24.4°C 52.5°F11.4°C 44% 7.6 mph NW12.2 kmh NW 11.4 mph18.3 kmh 30.12 in1020.0 mb 0.00 in0.0 mm 0.00 in0.0 mm 0.00 in0.0 mm
01:30 PM 76.1°F24.5°C 52.6°F11.4°C 44% 6.9 mph WNW11.1 kmh WNW 12.1 mph19.5 kmh 30.12 in1020.0 mb 0.00 in0.0 mm 0.00 in0.0 mm 0.00 in0.0 mm
01:35 PM 76.1°F24.5°C 52.6°F11.4°C 44% 4.5 mph WNW7.2 kmh WNW 12.1 mph19.5 kmh 30.12 in1020.0 mb 0.00 in0.0 mm 0.00 in0.0 mm 0.00 in0.0 mm
01:40 PM 76.5°F24.7°C 53.0°F11.7°C 44% 2.2 mph NW3.5 kmh NW 11.4 mph18.3 kmh 30.11 in1019.6 mb 0.00 in0.0 mm 0.00 in0.0 mm 0.00 in0.0 mm
01:45 PM 76.8°F24.9°C 53.3°F11.8°C 44% 8.3 mph NW13.4 kmh NW 11.4 mph18.3 kmh 30.11 in1019.6 mb 0.00 in0.0 mm 0.00 in0.0 mm 0.00 in0.0 mm
01:50 PM 76.8°F24.9°C 53.3°F11.8°C 44% 6.9 mph NW11.1 kmh NW 10.7 mph17.2 kmh 30.11 in1019.6 mb 0.00 in0.0 mm 0.00 in0.0 mm 0.00 in0.0 mm
01:55 PM 76.8°F24.9°C 52.7°F11.5°C 43% 3.8 mph NW6.1 kmh NW 10.7 mph17.2 kmh 30.11 in1019.6 mb 0.00 in0.0 mm 0.00 in0.0 mm 0.00 in0.0 mm
02:00 PM 77.0°F25.0°C 51.5°F10.8°C 41% 1.6 mph WNW2.6 kmh WNW 10.7 mph17.2 kmh 30.11 in1019.6 mb 0.00 in0.0 mm 0.00 in0.0 mm 0.00 in0.0 mm
02:05 PM 77.2°F25.1°C 51.0°F10.6°C 40% 1.6 mph NW2.6 kmh NW 8.3 mph13.4 kmh 30.10 in1019.3 mb 0.00 in0.0 mm 0.00 in0.0 mm 0.00 in0.0 mm
02:10 PM 77.2°F25.1°C 50.3°F10.2°C 39% 3.1 mph NW5.0 kmh NW 9.2 mph14.8 kmh 30.11 in1019.6 mb 0.00 in0.0 mm 0.00 in0.0 mm 0.00 in0.0 mm
02:15 PM 77.5°F25.3°C 52.7°F11.5°C 42% 3.8 mph NW6.1 kmh NW 9.2 mph14.8 kmh 30.10 in1019.3 mb 0.00 in0.0 mm 0.00 in0.0 mm 0.00 in0.0 mm
02:20 PM 77.9°F25.5°C 51.0°F10.6°C 39% 4.5 mph W7.2 kmh W 8.3 mph13.4 kmh 30.10 in1019.3 mb 0.00 in0.0 mm 0.00 in0.0 mm 0.00 in0.0 mm
02:25 PM 78.1°F25.6°C 51.8°F11.0°C 40% 5.4 mph NW8.7 kmh NW 10.7 mph17.2 kmh 30.10 in1019.3 mb 0.00 in0.0 mm 0.00 in0.0 mm 0.00 in0.0 mm
02:30 PM 78.6°F25.9°C 52.3°F11.3°C 40% 2.2 mph NNW3.5 kmh NNW 10.7 mph17.2 kmh 30.10 in1019.3 mb 0.00 in0.0 mm 0.00 in0.0 mm 0.00 in0.0 mm
02:35 PM 79.0°F26.1°C 51.9°F11.1°C 39% 1.6 mph W2.6 kmh W 8.3 mph13.4 kmh 30.10 in1019.3 mb 0.00 in0.0 mm 0.00 in0.0 mm 0.00 in0.0 mm
02:40 PM 79.2°F26.2°C 52.1°F11.2°C 39% 6.0 mph WSW9.7 kmh WSW 8.3 mph13.4 kmh 30.09 in1019.0 mb 0.00 in0.0 mm 0.00 in0.0 mm 0.00 in0.0 mm
02:45 PM 79.3°F26.3°C 51.6°F10.9°C 38% 9.2 mph NW14.8 kmh NW 12.1 mph19.5 kmh 30.09 in1019.0 mb 0.00 in0.0 mm 0.00 in0.0 mm 0.00 in0.0 mm
02:50 PM 79.2°F26.2°C 50.7°F10.4°C 37% 5.4 mph WNW8.7 kmh WNW 12.1 mph19.5 kmh 30.10 in1019.3 mb 0.00 in0.0 mm 0.00 in0.0 mm 0.00 in0.0 mm
02:55 PM 79.2°F26.2°C 52.1°F11.2°C 39% 6.9 mph W11.1 kmh W 12.1 mph19.5 kmh 30.09 in1019.0 mb 0.00 in0.0 mm 0.00 in0.0 mm 0.00 in0.0 mm
03:00 PM 79.0°F26.1°C 51.2°F10.7°C 38% 5.4 mph WNW8.7 kmh WNW 10.7 mph17.2 kmh 30.09 in1019.0 mb 0.00 in0.0 mm 0.00 in0.0 mm 0.00 in0.0 mm
03:05 PM 79.2°F26.2°C 50.7°F10.4°C 37% 4.5 mph W7.2 kmh W 9.2 mph14.8 kmh 30.09 in1019.0 mb 0.00 in0.0 mm 0.00 in0.0 mm 0.00 in0.0 mm
03:10 PM 79.2°F26.2°C 50.7°F10.4°C 37% 6.0 mph W9.7 kmh W 9.8 mph15.8 kmh 30.09 in1019.0 mb 0.00 in0.0 mm 0.00 in0.0 mm 0.00 in0.0 mm
03:15 PM 79.2°F26.2°C 50.7°F10.4°C 37% 5.4 mph WSW8.7 kmh WSW 9.8 mph15.8 kmh 30.09 in1019.0 mb 0.00 in0.0 mm 0.00 in0.0 mm 0.00 in0.0 mm
03:20 PM 79.2°F26.2°C 50.7°F10.4°C 37% 1.6 mph W2.6 kmh W 13.0 mph20.9 kmh 30.09 in1019.0 mb 0.00 in0.0 mm 0.00 in0.0 mm 0.00 in0.0 mm
03:25 PM 79.2°F26.2°C 48.4°F9.1°C 34% 3.8 mph W6.1 kmh W 13.0 mph20.9 kmh 30.08 in1018.6 mb 0.00 in0.0 mm 0.00 in0.0 mm 0.00 in0.0 mm
03:30 PM 79.5°F26.4°C 51.0°F10.6°C 37% 3.8 mph W6.1 kmh W 10.7 mph17.2 kmh 30.09 in1019.0 mb 0.00 in0.0 mm 0.00 in0.0 mm 0.00 in0.0 mm
03:35 PM 79.9°F26.6°C 52.8°F11.6°C 39% 6.0 mph W9.7 kmh W 10.7 mph17.2 kmh 30.08 in1018.6 mb 0.00 in0.0 mm 0.00 in0.0 mm 0.00 in0.0 mm
03:40 PM 80.2°F26.8°C 50.1°F10.1°C 35% 4.5 mph WNW7.2 kmh WNW 15.2 mph24.5 kmh 30.08 in1018.6 mb 0.00 in0.0 mm 0.00 in0.0 mm 0.00 in0.0 mm
03:45 PM 80.1°F26.7°C 50.7°F10.4°C 36% 6.9 mph WNW11.1 kmh WNW 15.2 mph24.5 kmh 30.08 in1018.6 mb 0.00 in0.0 mm 0.00 in0.0 mm 0.00 in0.0 mm
03:50 PM 79.5°F26.4°C 50.3°F10.2°C 36% 4.5 mph WNW7.2 kmh WNW 10.7 mph17.2 kmh 30.08 in1018.6 mb 0.00 in0.0 mm 0.00 in0.0 mm 0.00 in0.0 mm
03:55 PM 79.5°F26.4°C 51.0°F10.6°C 37% 6.9 mph NW11.1 kmh NW 13.0 mph20.9 kmh 30.07 in1018.3 mb 0.00 in0.0 mm 0.00 in0.0 mm 0.00 in0.0 mm
04:00 PM 79.3°F26.3°C 50.8°F10.4°C 37% 4.5 mph NW7.2 kmh NW 13.0 mph20.9 kmh 30.07 in1018.3 mb 0.00 in0.0 mm 0.00 in0.0 mm 0.00 in0.0 mm
04:05 PM 79.3°F26.3°C 50.8°F10.4°C 37% 3.8 mph WNW6.1 kmh WNW 10.7 mph17.2 kmh 30.07 in1018.3 mb 0.00 in0.0 mm 0.00 in0.0 mm 0.00 in0.0 mm
04:10 PM 79.7°F26.5°C 50.4°F10.2°C 36% 2.2 mph WNW3.5 kmh WNW 9.8 mph15.8 kmh 30.07 in1018.3 mb 0.00 in0.0 mm 0.00 in0.0 mm 0.00 in0.0 mm
04:15 PM 79.7°F26.5°C 49.7°F9.8°C 35% 3.8 mph NW6.1 kmh NW 9.8 mph15.8 kmh 30.07 in1018.3 mb 0.00 in0.0 mm 0.00 in0.0 mm 0.00 in0.0 mm
04:20 PM 79.3°F26.3°C 49.3°F9.6°C 35% 4.5 mph NW7.2 kmh NW 10.7 mph17.2 kmh 30.07 in1018.3 mb 0.00 in0.0 mm 0.00 in0.0 mm 0.00 in0.0 mm
04:25 PM 78.8°F26.0°C 49.6°F9.8°C 36% 3.8 mph NW6.1 kmh NW 10.7 mph17.2 kmh 30.07 in1018.3 mb 0.00 in0.0 mm 0.00 in0.0 mm 0.00 in0.0 mm
04:30 PM 78.4°F25.8°C 50.0°F10.0°C 37% 9.8 mph NW15.8 kmh NW 11.4 mph18.3 kmh 30.07 in1018.3 mb 0.00 in0.0 mm 0.00 in0.0 mm 0.00 in0.0 mm
04:35 PM 78.3°F25.7°C 50.6°F10.3°C 38% 6.0 mph NW9.7 kmh NW 11.4 mph18.3 kmh 30.07 in1018.3 mb 0.00 in0.0 mm 0.00 in0.0 mm 0.00 in0.0 mm
04:40 PM 78.3°F25.7°C 49.9°F9.9°C 37% 6.0 mph WNW9.7 kmh WNW 11.4 mph18.3 kmh 30.07 in1018.3 mb 0.00 in0.0 mm 0.00 in0.0 mm 0.00 in0.0 mm
04:45 PM 77.9°F25.5°C 48.8°F9.3°C 36% 3.8 mph WNW6.1 kmh WNW 10.7 mph17.2 kmh 30.07 in1018.3 mb 0.00 in0.0 mm 0.00 in0.0 mm 0.00 in0.0 mm
04:50 PM 77.9°F25.5°C 48.8°F9.3°C 36% 3.8 mph WNW6.1 kmh WNW 13.6 mph21.9 kmh 30.07 in1018.3 mb 0.00 in0.0 mm 0.00 in0.0 mm 0.00 in0.0 mm
04:55 PM 77.7°F25.4°C 48.7°F9.3°C 36% 5.4 mph WNW8.7 kmh WNW 13.6 mph21.9 kmh 30.07 in1018.3 mb 0.00 in0.0 mm 0.00 in0.0 mm 0.00 in0.0 mm
05:00 PM 77.7°F25.4°C 50.1°F10.1°C 38% 3.8 mph NW6.1 kmh NW 12.1 mph19.5 kmh 30.07 in1018.3 mb 0.00 in0.0 mm 0.00 in0.0 mm 0.00 in0.0 mm
05:05 PM 77.7°F25.4°C 50.1°F10.1°C 38% 3.8 mph NW6.1 kmh NW 12.1 mph19.5 kmh 30.07 in1018.3 mb 0.00 in0.0 mm 0.00 in0.0 mm 0.00 in0.0 mm
05:10 PM 77.7°F25.4°C 49.4°F9.7°C 37% 9.2 mph WNW14.8 kmh WNW 12.1 mph19.5 kmh 30.07 in1018.3 mb 0.00 in0.0 mm 0.00 in0.0 mm 0.00 in0.0 mm
05:15 PM 77.7°F25.4°C 49.4°F9.7°C 37% 6.0 mph W9.7 kmh W 12.1 mph19.5 kmh 30.07 in1018.3 mb 0.00 in0.0 mm 0.00 in0.0 mm 0.00 in0.0 mm
05:20 PM 77.5°F25.3°C 49.2°F9.6°C 37% 5.4 mph WNW8.7 kmh WNW 11.4 mph18.3 kmh 30.07 in1018.3 mb 0.00 in0.0 mm 0.00 in0.0 mm 0.00 in0.0 mm
05:25 PM 77.2°F25.1°C 48.9°F9.4°C 37% 4.5 mph WNW7.2 kmh WNW 10.7 mph17.2 kmh 30.07 in1018.3 mb 0.00 in0.0 mm 0.00 in0.0 mm 0.00 in0.0 mm
05:30 PM 77.0°F25.0°C 50.2°F10.1°C 39% 6.9 mph NW11.1 kmh NW 10.7 mph17.2 kmh 30.07 in1018.3 mb 0.00 in0.0 mm 0.00 in0.0 mm 0.00 in0.0 mm
05:35 PM 77.0°F25.0°C 50.9°F10.5°C 40% 6.0 mph NW9.7 kmh NW 9.8 mph15.8 kmh 30.07 in1018.3 mb 0.00 in0.0 mm 0.00 in0.0 mm 0.00 in0.0 mm
05:40 PM 76.6°F24.8°C 51.2°F10.7°C 41% 9.8 mph NW15.8 kmh NW 13.6 mph21.9 kmh 30.07 in1018.3 mb 0.00 in0.0 mm 0.00 in0.0 mm 0.00 in0.0 mm
05:45 PM 76.3°F24.6°C 52.2°F11.2°C 43% 6.0 mph NW9.7 kmh NW 16.8 mph27.0 kmh 30.07 in1018.3 mb 0.00 in0.0 mm 0.00 in0.0 mm 0.00 in0.0 mm
05:50 PM 75.9°F24.4°C 51.2°F10.7°C 42% 6.0 mph NW9.7 kmh NW 16.8 mph27.0 kmh 30.07 in1018.3 mb 0.00 in0.0 mm 0.00 in0.0 mm 0.00 in0.0 mm
05:55 PM 75.9°F24.4°C 51.9°F11.1°C 43% 6.9 mph NW11.1 kmh NW 15.9 mph25.6 kmh 30.07 in1018.3 mb 0.00 in0.0 mm 0.00 in0.0 mm 0.00 in0.0 mm
06:00 PM 75.9°F24.4°C 51.9°F11.1°C 43% 6.9 mph NW11.1 kmh NW 14.5 mph23.3 kmh 30.08 in1018.6 mb 0.00 in0.0 mm 0.00 in0.0 mm 0.00 in0.0 mm
06:05 PM 75.7°F24.3°C 52.3°F11.3°C 44% 12.1 mph NW19.5 kmh NW 16.8 mph27.0 kmh 30.08 in1018.6 mb 0.00 in0.0 mm 0.00 in0.0 mm 0.00 in0.0 mm
06:10 PM 75.2°F24.0°C 51.8°F11.0°C 44% 6.0 mph NW9.7 kmh NW 16.8 mph27.0 kmh 30.07 in1018.3 mb 0.00 in0.0 mm 0.00 in0.0 mm 0.00 in0.0 mm
06:15 PM 74.8°F23.8°C 52.1°F11.2°C 45% 8.3 mph NW13.4 kmh NW 16.8 mph27.0 kmh 30.08 in1018.6 mb 0.00 in0.0 mm 0.00 in0.0 mm 0.00 in0.0 mm
06:20 PM 74.5°F23.6°C 52.4°F11.3°C 46% 8.3 mph NW13.4 kmh NW 13.6 mph21.9 kmh 30.08 in1018.6 mb 0.00 in0.0 mm 0.00 in0.0 mm 0.00 in0.0 mm
06:25 PM 73.9°F23.3°C 51.9°F11.1°C 46% 7.6 mph NW12.2 kmh NW 13.6 mph21.9 kmh 30.07 in1018.3 mb 0.00 in0.0 mm 0.00 in0.0 mm 0.00 in0.0 mm
06:30 PM 73.6°F23.1°C 51.6°F10.9°C 46% 7.6 mph WNW12.2 kmh WNW 13.6 mph21.9 kmh 30.07 in1018.3 mb 0.00 in0.0 mm 0.00 in0.0 mm 0.00 in0.0 mm
06:35 PM 73.4°F23.0°C 51.4°F10.8°C 46% 4.5 mph WNW7.2 kmh WNW 13.0 mph20.9 kmh 30.07 in1018.3 mb 0.00 in0.0 mm 0.00 in0.0 mm 0.00 in0.0 mm
06:40 PM 73.0°F22.8°C 51.6°F10.9°C 47% 5.4 mph NW8.7 kmh NW 11.4 mph18.3 kmh 30.08 in1018.6 mb 0.00 in0.0 mm 0.00 in0.0 mm 0.00 in0.0 mm
06:45 PM 72.9°F22.7°C 51.5°F10.8°C 47% 6.9 mph NW11.1 kmh NW 11.4 mph18.3 kmh 30.08 in1018.6 mb 0.00 in0.0 mm 0.00 in0.0 mm 0.00 in0.0 mm
06:50 PM 72.5°F22.5°C 51.2°F10.7°C 47% 7.6 mph NW12.2 kmh NW 11.4 mph18.3 kmh 30.08 in1018.6 mb 0.00 in0.0 mm 0.00 in0.0 mm 0.00 in0.0 mm
06:55 PM 72.3°F22.4°C 51.0°F10.6°C 47% 6.0 mph NW9.7 kmh NW 11.4 mph18.3 kmh 30.08 in1018.6 mb 0.00 in0.0 mm 0.00 in0.0 mm 0.00 in0.0 mm
07:00 PM 72.0°F22.2°C 50.7°F10.4°C 47% 6.0 mph NW9.7 kmh NW 13.6 mph21.9 kmh 30.08 in1018.6 mb 0.00 in0.0 mm 0.00 in0.0 mm 0.00 in0.0 mm
07:05 PM 72.0°F22.2°C 50.7°F10.4°C 47% 6.0 mph NW9.7 kmh NW 13.6 mph21.9 kmh 30.08 in1018.6 mb 0.00 in0.0 mm 0.00 in0.0 mm 0.00 in0.0 mm
07:10 PM 71.6°F22.0°C 50.9°F10.5°C 48% 6.9 mph NW11.1 kmh NW 11.4 mph18.3 kmh 30.08 in1018.6 mb 0.00 in0.0 mm 0.00 in0.0 mm 0.00 in0.0 mm
07:15 PM 71.4°F21.9°C 51.3°F10.7°C 49% 6.0 mph NW9.7 kmh NW 11.4 mph18.3 kmh 30.08 in1018.6 mb 0.00 in0.0 mm 0.00 in0.0 mm 0.00 in0.0 mm
07:20 PM 71.2°F21.8°C 51.1°F10.6°C 49% 4.5 mph NW7.2 kmh NW 11.4 mph18.3 kmh 30.08 in1018.6 mb 0.00 in0.0 mm 0.00 in0.0 mm 0.00 in0.0 mm
07:25 PM 71.2°F21.8°C 51.1°F10.6°C 49% 5.4 mph NW8.7 kmh NW 10.7 mph17.2 kmh 30.08 in1018.6 mb 0.00 in0.0 mm 0.00 in0.0 mm 0.00 in0.0 mm
07:30 PM 71.1°F21.7°C 51.5°F10.8°C 50% 4.5 mph NW7.2 kmh NW 9.8 mph15.8 kmh 30.09 in1019.0 mb 0.00 in0.0 mm 0.00 in0.0 mm 0.00 in0.0 mm
07:35 PM 70.9°F21.6°C 51.3°F10.7°C 50% 4.5 mph NW7.2 kmh NW 12.1 mph19.5 kmh 30.09 in1019.0 mb 0.00 in0.0 mm 0.00 in0.0 mm 0.00 in0.0 mm
07:40 PM 70.9°F21.6°C 51.3°F10.7°C 50% 6.9 mph NW11.1 kmh NW 12.1 mph19.5 kmh 30.09 in1019.0 mb 0.00 in0.0 mm 0.00 in0.0 mm 0.00 in0.0 mm
07:45 PM 70.5°F21.4°C 51.0°F10.6°C 50% 5.4 mph NW8.7 kmh NW 10.7 mph17.2 kmh 30.09 in1019.0 mb 0.00 in0.0 mm 0.00 in0.0 mm 0.00 in0.0 mm
07:50 PM 70.5°F21.4°C 51.0°F10.6°C 50% 3.1 mph NW5.0 kmh NW 9.8 mph15.8 kmh 30.09 in1019.0 mb 0.00 in0.0 mm 0.00 in0.0 mm 0.00 in0.0 mm
07:55 PM 70.2°F21.2°C 50.7°F10.4°C 50% 2.2 mph NW3.5 kmh NW 7.6 mph12.2 kmh 30.09 in1019.0 mb 0.00 in0.0 mm 0.00 in0.0 mm 0.00 in0.0 mm
08:00 PM 70.0°F21.1°C 51.0°F10.6°C 51% 1.6 mph NW2.6 kmh NW 6.0 mph9.7 kmh 30.09 in1019.0 mb 0.00 in0.0 mm 0.00 in0.0 mm 0.00 in0.0 mm
08:05 PM 69.8°F21.0°C 51.4°F10.8°C 52% 1.6 mph WNW2.6 kmh WNW 5.4 mph8.7 kmh 30.09 in1019.0 mb 0.00 in0.0 mm 0.00 in0.0 mm 0.00 in0.0 mm
08:10 PM 69.4°F20.8°C 51.6°F10.9°C 53% 0.7 mph W1.1 kmh W 4.5 mph7.2 kmh 30.09 in1019.0 mb 0.00 in0.0 mm 0.00 in0.0 mm 0.00 in0.0 mm
08:15 PM 69.3°F20.7°C 51.4°F10.8°C 53% 1.6 mph W2.6 kmh W 3.8 mph6.1 kmh 30.08 in1018.6 mb 0.00 in0.0 mm 0.00 in0.0 mm 0.00 in0.0 mm
08:20 PM 69.1°F20.6°C 51.3°F10.7°C 53% 1.6 mph WSW2.6 kmh WSW 3.8 mph6.1 kmh 30.09 in1019.0 mb 0.00 in0.0 mm 0.00 in0.0 mm 0.00 in0.0 mm
08:25 PM 69.1°F20.6°C 51.3°F10.7°C 53% 1.6 mph SW2.6 kmh SW 3.8 mph6.1 kmh 30.08 in1018.6 mb 0.00 in0.0 mm 0.00 in0.0 mm 0.00 in0.0 mm
08:30 PM 68.9°F20.5°C 51.6°F10.9°C 54% 0.7 mph SW1.1 kmh SW 4.5 mph7.2 kmh 30.09 in1019.0 mb 0.00 in0.0 mm 0.00 in0.0 mm 0.00 in0.0 mm
08:35 PM 68.9°F20.5°C 51.6°F10.9°C 54% 2.2 mph SW3.5 kmh SW 5.4 mph8.7 kmh 30.09 in1019.0 mb 0.00 in0.0 mm 0.00 in0.0 mm 0.00 in0.0 mm
08:40 PM 68.7°F20.4°C 51.9°F11.1°C 55% 2.2 mph SW3.5 kmh SW 5.4 mph8.7 kmh 30.09 in1019.0 mb 0.00 in0.0 mm 0.00 in0.0 mm 0.00 in0.0 mm
08:45 PM 68.5°F20.3°C 51.8°F11.0°C 55% 3.1 mph WSW5.0 kmh WSW 6.9 mph11.1 kmh 30.09 in1019.0 mb 0.00 in0.0 mm 0.00 in0.0 mm 0.00 in0.0 mm
08:50 PM 68.4°F20.2°C 51.6°F10.9°C 55% 3.1 mph W5.0 kmh W 8.3 mph13.4 kmh 30.09 in1019.0 mb 0.00 in0.0 mm 0.00 in0.0 mm 0.00 in0.0 mm
08:55 PM 68.4°F20.2°C 52.1°F11.2°C 56% 6.0 mph WNW9.7 kmh WNW 9.8 mph15.8 kmh 30.09 in1019.0 mb 0.00 in0.0 mm 0.00 in0.0 mm 0.00 in0.0 mm
09:00 PM 68.0°F20.0°C 52.2°F11.2°C 57% 5.4 mph WNW8.7 kmh WNW 9.8 mph15.8 kmh 30.09 in1019.0 mb 0.00 in0.0 mm 0.00 in0.0 mm 0.00 in0.0 mm
09:05 PM 68.0°F20.0°C 52.2°F11.2°C 57% 5.4 mph WNW8.7 kmh WNW 8.3 mph13.4 kmh 30.09 in1019.0 mb 0.00 in0.0 mm 0.00 in0.0 mm 0.00 in0.0 mm
09:10 PM 67.8°F19.9°C 52.5°F11.4°C 58% 6.9 mph NW11.1 kmh NW 9.8 mph15.8 kmh 30.09 in1019.0 mb 0.00 in0.0 mm 0.00 in0.0 mm 0.00 in0.0 mm
09:15 PM 67.6°F19.8°C 52.8°F11.6°C 59% 3.8 mph WNW6.1 kmh WNW 9.8 mph15.8 kmh 30.09 in1019.0 mb 0.00 in0.0 mm 0.00 in0.0 mm 0.00 in0.0 mm
09:20 PM 67.5°F19.7°C 52.7°F11.5°C 59% 3.8 mph WNW6.1 kmh WNW 9.8 mph15.8 kmh 30.09 in1019.0 mb 0.00 in0.0 mm 0.00 in0.0 mm 0.00 in0.0 mm
09:25 PM 67.3°F19.6°C 52.5°F11.4°C 59% 3.8 mph NW6.1 kmh NW 9.2 mph14.8 kmh 30.09 in1019.0 mb 0.00 in0.0 mm 0.00 in0.0 mm 0.00 in0.0 mm
09:30 PM 67.3°F19.6°C 52.9°F11.6°C 60% 3.8 mph NW6.1 kmh NW 9.2 mph14.8 kmh 30.10 in1019.3 mb 0.00 in0.0 mm 0.00 in0.0 mm 0.00 in0.0 mm
09:35 PM 67.3°F19.6°C 52.9°F11.6°C 60% 3.1 mph W5.0 kmh W 9.2 mph14.8 kmh 30.10 in1019.3 mb 0.00 in0.0 mm 0.00 in0.0 mm 0.00 in0.0 mm
09:40 PM 67.1°F19.5°C 52.8°F11.6°C 60% 2.2 mph WSW3.5 kmh WSW 7.6 mph12.2 kmh 30.10 in1019.3 mb 0.00 in0.0 mm 0.00 in0.0 mm 0.00 in0.0 mm
09:45 PM 67.1°F19.5°C 52.8°F11.6°C 60% 5.4 mph WSW8.7 kmh WSW 7.6 mph12.2 kmh 30.10 in1019.3 mb 0.00 in0.0 mm 0.00 in0.0 mm 0.00 in0.0 mm
09:50 PM 66.9°F19.4°C 52.6°F11.4°C 60% 5.4 mph WSW8.7 kmh WSW 8.3 mph13.4 kmh 30.09 in1019.0 mb 0.00 in0.0 mm 0.00 in0.0 mm 0.00 in0.0 mm
09:55 PM 66.9°F19.4°C 53.1°F11.7°C 61% 3.1 mph WSW5.0 kmh WSW 8.3 mph13.4 kmh 30.09 in1019.0 mb 0.00 in0.0 mm 0.00 in0.0 mm 0.00 in0.0 mm
10:00 PM 66.7°F19.3°C 52.9°F11.6°C 61% 2.2 mph WSW3.5 kmh WSW 8.3 mph13.4 kmh 30.10 in1019.3 mb 0.00 in0.0 mm 0.00 in0.0 mm 0.00 in0.0 mm
10:05 PM 66.7°F19.3°C 53.3°F11.8°C 62% 4.5 mph SW7.2 kmh SW 7.6 mph12.2 kmh 30.10 in1019.3 mb 0.00 in0.0 mm 0.00 in0.0 mm 0.00 in0.0 mm
10:10 PM 66.6°F19.2°C 53.2°F11.8°C 62% 3.8 mph WSW6.1 kmh WSW 7.6 mph12.2 kmh 30.10 in1019.3 mb 0.00 in0.0 mm 0.00 in0.0 mm 0.00 in0.0 mm
10:15 PM 66.6°F19.2°C 53.6°F12.0°C 63% 2.2 mph SW3.5 kmh SW 9.2 mph14.8 kmh 30.10 in1019.3 mb 0.00 in0.0 mm 0.00 in0.0 mm 0.00 in0.0 mm
10:20 PM 66.6°F19.2°C 54.0°F12.2°C 64% 3.1 mph SW5.0 kmh SW 9.2 mph14.8 kmh 30.09 in1019.0 mb 0.00 in0.0 mm 0.00 in0.0 mm 0.00 in0.0 mm
10:25 PM 66.4°F19.1°C 53.9°F12.2°C 64% 1.6 mph SSW2.6 kmh SSW 5.4 mph8.7 kmh 30.10 in1019.3 mb 0.00 in0.0 mm 0.00 in0.0 mm 0.00 in0.0 mm
10:30 PM 66.4°F19.1°C 53.9°F12.2°C 64% 3.8 mph SW6.1 kmh SW 5.4 mph8.7 kmh 30.10 in1019.3 mb 0.00 in0.0 mm 0.00 in0.0 mm 0.00 in0.0 mm
10:35 PM 66.2°F19.0°C 53.7°F12.1°C 64% 2.2 mph W3.5 kmh W 7.6 mph12.2 kmh 30.10 in1019.3 mb 0.00 in0.0 mm 0.00 in0.0 mm 0.00 in0.0 mm
10:40 PM 66.0°F18.9°C 54.4°F12.4°C 66% 3.8 mph WSW6.1 kmh WSW 7.6 mph12.2 kmh 30.09 in1019.0 mb 0.00 in0.0 mm 0.00 in0.0 mm 0.00 in0.0 mm
10:45 PM 66.0°F18.9°C 54.4°F12.4°C 66% 5.4 mph WSW8.7 kmh WSW 6.9 mph11.1 kmh 30.09 in1019.0 mb 0.00 in0.0 mm 0.00 in0.0 mm 0.00 in0.0 mm
10:50 PM 65.8°F18.8°C 54.2°F12.3°C 66% 3.8 mph WSW6.1 kmh WSW 6.9 mph11.1 kmh 30.09 in1019.0 mb 0.00 in0.0 mm 0.00 in0.0 mm 0.00 in0.0 mm
10:55 PM 65.7°F18.7°C 54.4°F12.4°C 67% 2.2 mph SW3.5 kmh SW 6.0 mph9.7 kmh 30.09 in1019.0 mb 0.00 in0.0 mm 0.00 in0.0 mm 0.00 in0.0 mm
11:00 PM 65.7°F18.7°C 54.4°F12.4°C 67% 3.8 mph SW6.1 kmh SW 7.6 mph12.2 kmh 30.10 in1019.3 mb 0.00 in0.0 mm 0.00 in0.0 mm 0.00 in0.0 mm
11:05 PM 65.7°F18.7°C 54.4°F12.4°C 67% 3.8 mph SW6.1 kmh SW 7.6 mph12.2 kmh 30.10 in1019.3 mb 0.00 in0.0 mm 0.00 in0.0 mm 0.00 in0.0 mm
11:10 PM 65.5°F18.6°C 54.7°F12.6°C 68% 9.2 mph WSW14.8 kmh WSW 13.0 mph20.9 kmh 30.09 in1019.0 mb 0.00 in0.0 mm 0.00 in0.0 mm 0.00 in0.0 mm
11:15 PM 65.5°F18.6°C 54.7°F12.6°C 68% 3.8 mph WSW6.1 kmh WSW 13.0 mph20.9 kmh 30.09 in1019.0 mb 0.00 in0.0 mm 0.00 in0.0 mm 0.00 in0.0 mm
11:20 PM 65.5°F18.6°C 55.1°F12.8°C 69% 5.4 mph W8.7 kmh W 10.7 mph17.2 kmh 30.10 in1019.3 mb 0.00 in0.0 mm 0.00 in0.0 mm 0.00 in0.0 mm
11:25 PM 65.3°F18.5°C 54.9°F12.7°C 69% 3.8 mph W6.1 kmh W 10.7 mph17.2 kmh 30.09 in1019.0 mb 0.00 in0.0 mm 0.00 in0.0 mm 0.00 in0.0 mm
11:30 PM 65.3°F18.5°C 54.9°F12.7°C 69% 4.5 mph W7.2 kmh W 8.3 mph13.4 kmh 30.09 in1019.0 mb 0.00 in0.0 mm 0.00 in0.0 mm 0.00 in0.0 mm
11:35 PM 65.1°F18.4°C 54.7°F12.6°C 69% 3.8 mph WNW6.1 kmh WNW 11.4 mph18.3 kmh 30.09 in1019.0 mb 0.00 in0.0 mm 0.00 in0.0 mm 0.00 in0.0 mm
11:40 PM 65.1°F18.4°C 55.1°F12.8°C 70% 5.4 mph WNW8.7 kmh WNW 11.4 mph18.3 kmh 30.09 in1019.0 mb 0.00 in0.0 mm 0.00 in0.0 mm 0.00 in0.0 mm
11:45 PM 64.9°F18.3°C 54.9°F12.7°C 70% 6.0 mph WSW9.7 kmh WSW 11.4 mph18.3 kmh 30.09 in1019.0 mb 0.00 in0.0 mm 0.00 in0.0 mm 0.00 in0.0 mm
11:50 PM 64.8°F18.2°C 55.2°F12.9°C 71% 6.9 mph WSW11.1 kmh WSW 11.4 mph18.3 kmh 30.09 in1019.0 mb 0.00 in0.0 mm 0.00 in0.0 mm 0.00 in0.0 mm
11:55 PM 64.8°F18.2°C 55.2°F12.9°C 71% 6.9 mph WNW11.1 kmh WNW 13.6 mph21.9 kmh 30.10 in1019.3 mb 0.00 in0.0 mm 0.00 in0.0 mm 0.00 in0.0 mm